sensor_id;sensor_type;location;lat;lon;timestamp;temperature;humidity
71668;DHT22;59504;54.806;9.640;2023-06-04T00:01:56;10.20;53.00
71668;DHT22;59504;54.806;9.640;2023-06-04T00:04:17;10.10;53.60
71668;DHT22;59504;54.806;9.640;2023-06-04T00:06:38;10.20;54.30
71668;DHT22;59504;54.806;9.640;2023-06-04T00:08:59;10.10;54.20
71668;DHT22;59504;54.806;9.640;2023-06-04T00:11:19;10.10;54.20
71668;DHT22;59504;54.806;9.640;2023-06-04T00:13:40;10.10;54.30
71668;DHT22;59504;54.806;9.640;2023-06-04T00:16:01;10.00;53.90
71668;DHT22;59504;54.806;9.640;2023-06-04T00:18:22;10.00;54.50
71668;DHT22;59504;54.806;9.640;2023-06-04T00:20:43;10.00;54.60
71668;DHT22;59504;54.806;9.640;2023-06-04T00:23:04;10.00;54.80
71668;DHT22;59504;54.806;9.640;2023-06-04T00:25:25;9.90;54.70
71668;DHT22;59504;54.806;9.640;2023-06-04T00:27:45;9.80;54.50
71668;DHT22;59504;54.806;9.640;2023-06-04T00:30:06;10.00;54.90
71668;DHT22;59504;54.806;9.640;2023-06-04T00:32:27;9.90;55.00
71668;DHT22;59504;54.806;9.640;2023-06-04T00:34:51;9.80;55.00
71668;DHT22;59504;54.806;9.640;2023-06-04T00:37:12;9.80;55.20
71668;DHT22;59504;54.806;9.640;2023-06-04T00:39:33;9.80;55.50
71668;DHT22;59504;54.806;9.640;2023-06-04T00:41:55;9.80;55.90
71668;DHT22;59504;54.806;9.640;2023-06-04T00:44:16;9.70;56.10
71668;DHT22;59504;54.806;9.640;2023-06-04T00:46:37;9.70;56.10
71668;DHT22;59504;54.806;9.640;2023-06-04T00:48:58;9.70;56.10
71668;DHT22;59504;54.806;9.640;2023-06-04T00:51:19;9.60;56.40
71668;DHT22;59504;54.806;9.640;2023-06-04T00:53:41;9.50;56.20
71668;DHT22;59504;54.806;9.640;2023-06-04T00:56:01;9.50;56.40
71668;DHT22;59504;54.806;9.640;2023-06-04T00:58:25;9.50;56.30
71668;DHT22;59504;54.806;9.640;2023-06-04T01:00:46;9.50;56.10
71668;DHT22;59504;54.806;9.640;2023-06-04T01:03:10;9.40;56.10
71668;DHT22;59504;54.806;9.640;2023-06-04T01:07:53;9.40;56.10
71668;DHT22;59504;54.806;9.640;2023-06-04T01:10:14;9.30;56.00
71668;DHT22;59504;54.806;9.640;2023-06-04T01:12:38;9.30;56.20
71668;DHT22;59504;54.806;9.640;2023-06-04T01:14:59;9.30;56.40
71668;DHT22;59504;54.806;9.640;2023-06-04T01:17:31;9.30;56.30
71668;DHT22;59504;54.806;9.640;2023-06-04T01:27:48;9.10;56.30
71668;DHT22;59504;54.806;9.640;2023-06-04T01:30:10;9.10;56.20
71668;DHT22;59504;54.806;9.640;2023-06-04T01:32:31;9.00;56.10
71668;DHT22;59504;54.806;9.640;2023-06-04T01:34:52;9.00;56.00
71668;DHT22;59504;54.806;9.640;2023-06-04T01:37:13;9.00;56.20
71668;DHT22;59504;54.806;9.640;2023-06-04T01:39:37;8.90;56.20
71668;DHT22;59504;54.806;9.640;2023-06-04T01:41:58;8.90;56.40
71668;DHT22;59504;54.806;9.640;2023-06-04T01:44:19;8.90;56.90
71668;DHT22;59504;54.806;9.640;2023-06-04T01:46:39;8.80;56.20
71668;DHT22;59504;54.806;9.640;2023-06-04T01:49:01;8.80;56.30
71668;DHT22;59504;54.806;9.640;2023-06-04T01:51:22;8.80;56.20
71668;DHT22;59504;54.806;9.640;2023-06-04T01:53:43;8.70;56.20
71668;DHT22;59504;54.806;9.640;2023-06-04T01:56:03;8.70;56.20
71668;DHT22;59504;54.806;9.640;2023-06-04T01:58:24;8.60;56.30
71668;DHT22;59504;54.806;9.640;2023-06-04T02:00:47;8.60;56.30
71668;DHT22;59504;54.806;9.640;2023-06-04T02:03:10;8.60;56.10
71668;DHT22;59504;54.806;9.640;2023-06-04T02:05:33;8.50;55.80
71668;DHT22;59504;54.806;9.640;2023-06-04T02:07:54;8.50;56.00
71668;DHT22;59504;54.806;9.640;2023-06-04T02:10:15;8.40;56.20
71668;DHT22;59504;54.806;9.640;2023-06-04T02:12:37;8.40;56.20
71668;DHT22;59504;54.806;9.640;2023-06-04T02:14:57;8.40;56.30
71668;DHT22;59504;54.806;9.640;2023-06-04T02:17:18;8.30;56.40
71668;DHT22;59504;54.806;9.640;2023-06-04T02:19:40;8.30;56.40
71668;DHT22;59504;54.806;9.640;2023-06-04T02:22:05;8.30;56.50
71668;DHT22;59504;54.806;9.640;2023-06-04T02:24:26;8.20;56.20
71668;DHT22;59504;54.806;9.640;2023-06-04T02:26:47;8.20;55.90
71668;DHT22;59504;54.806;9.640;2023-06-04T02:29:07;8.10;55.60
71668;DHT22;59504;54.806;9.640;2023-06-04T02:31:28;8.10;55.50
71668;DHT22;59504;54.806;9.640;2023-06-04T02:33:49;8.00;55.40
71668;DHT22;59504;54.806;9.640;2023-06-04T02:36:10;8.00;55.70
71668;DHT22;59504;54.806;9.640;2023-06-04T02:38:31;7.90;55.80
71668;DHT22;59504;54.806;9.640;2023-06-04T02:40:51;7.90;56.00
71668;DHT22;59504;54.806;9.640;2023-06-04T02:43:12;7.90;56.30
71668;DHT22;59504;54.806;9.640;2023-06-04T02:45:33;7.90;56.40
71668;DHT22;59504;54.806;9.640;2023-06-04T02:47:54;7.80;56.40
71668;DHT22;59504;54.806;9.640;2023-06-04T02:50:15;7.80;56.40
71668;DHT22;59504;54.806;9.640;2023-06-04T02:52:36;7.70;56.20
71668;DHT22;59504;54.806;9.640;2023-06-04T02:55:00;7.80;56.40
71668;DHT22;59504;54.806;9.640;2023-06-04T02:57:23;7.70;56.40
71668;DHT22;59504;54.806;9.640;2023-06-04T02:59:44;7.60;56.60
71668;DHT22;59504;54.806;9.640;2023-06-04T03:02:04;7.60;56.50
71668;DHT22;59504;54.806;9.640;2023-06-04T03:04:25;7.60;56.60
71668;DHT22;59504;54.806;9.640;2023-06-04T03:06:46;7.50;56.50
71668;DHT22;59504;54.806;9.640;2023-06-04T03:09:07;7.50;56.60
71668;DHT22;59504;54.806;9.640;2023-06-04T03:11:28;7.50;56.80
71668;DHT22;59504;54.806;9.640;2023-06-04T03:13:49;7.50;56.90
71668;DHT22;59504;54.806;9.640;2023-06-04T03:16:12;7.40;56.90
71668;DHT22;59504;54.806;9.640;2023-06-04T03:18:33;7.40;57.00
71668;DHT22;59504;54.806;9.640;2023-06-04T03:20:54;7.40;57.00
71668;DHT22;59504;54.806;9.640;2023-06-04T03:23:15;7.40;57.20
71668;DHT22;59504;54.806;9.640;2023-06-04T03:25:35;7.40;57.20
71668;DHT22;59504;54.806;9.640;2023-06-04T03:27:56;7.40;57.30
71668;DHT22;59504;54.806;9.640;2023-06-04T03:30:17;7.40;57.40
71668;DHT22;59504;54.806;9.640;2023-06-04T03:32:38;7.40;57.60
71668;DHT22;59504;54.806;9.640;2023-06-04T03:34:59;7.30;57.60
71668;DHT22;59504;54.806;9.640;2023-06-04T03:37:20;7.30;57.40
71668;DHT22;59504;54.806;9.640;2023-06-04T03:39:41;7.40;57.20
71668;DHT22;59504;54.806;9.640;2023-06-04T03:42:02;7.30;57.40
71668;DHT22;59504;54.806;9.640;2023-06-04T03:44:23;7.40;57.40
71668;DHT22;59504;54.806;9.640;2023-06-04T03:46:44;7.40;57.60
71668;DHT22;59504;54.806;9.640;2023-06-04T03:49:05;7.40;58.10
71668;DHT22;59504;54.806;9.640;2023-06-04T03:51:26;7.40;58.60
71668;DHT22;59504;54.806;9.640;2023-06-04T03:53:46;7.50;59.20
71668;DHT22;59504;54.806;9.640;2023-06-04T03:56:07;7.50;59.80
71668;DHT22;59504;54.806;9.640;2023-06-04T03:58:28;7.50;60.30
71668;DHT22;59504;54.806;9.640;2023-06-04T04:00:49;7.60;60.20
71668;DHT22;59504;54.806;9.640;2023-06-04T04:03:10;7.60;60.00
71668;DHT22;59504;54.806;9.640;2023-06-04T04:05:31;7.70;60.70
71668;DHT22;59504;54.806;9.640;2023-06-04T04:07:52;7.80;61.50
71668;DHT22;59504;54.806;9.640;2023-06-04T04:10:12;7.80;62.70
71668;DHT22;59504;54.806;9.640;2023-06-04T04:12:33;8.00;64.20
71668;DHT22;59504;54.806;9.640;2023-06-04T04:14:54;8.00;64.10
71668;DHT22;59504;54.806;9.640;2023-06-04T04:17:15;8.10;64.50
71668;DHT22;59504;54.806;9.640;2023-06-04T04:19:36;8.20;64.70
71668;DHT22;59504;54.806;9.640;2023-06-04T04:21:57;8.30;65.10
71668;DHT22;59504;54.806;9.640;2023-06-04T04:24:24;8.40;65.40
71668;DHT22;59504;54.806;9.640;2023-06-04T04:26:45;8.60;66.00
71668;DHT22;59504;54.806;9.640;2023-06-04T04:29:07;8.70;66.00
71668;DHT22;59504;54.806;9.640;2023-06-04T04:31:29;8.80;66.20
71668;DHT22;59504;54.806;9.640;2023-06-04T04:33:51;8.90;65.70
71668;DHT22;59504;54.806;9.640;2023-06-04T04:36:12;9.10;66.20
71668;DHT22;59504;54.806;9.640;2023-06-04T04:38:34;9.20;66.40
71668;DHT22;59504;54.806;9.640;2023-06-04T04:40:55;9.40;65.00
71668;DHT22;59504;54.806;9.640;2023-06-04T04:45:51;9.60;64.20
71668;DHT22;59504;54.806;9.640;2023-06-04T04:48:11;9.70;64.50
71668;DHT22;59504;54.806;9.640;2023-06-04T04:50:32;9.80;63.50
71668;DHT22;59504;54.806;9.640;2023-06-04T04:52:57;9.90;63.20
71668;DHT22;59504;54.806;9.640;2023-06-04T04:55:23;10.00;61.60
71668;DHT22;59504;54.806;9.640;2023-06-04T04:57:47;10.00;61.00
71668;DHT22;59504;54.806;9.640;2023-06-04T05:00:08;10.20;61.80
71668;DHT22;59504;54.806;9.640;2023-06-04T05:02:29;10.20;62.80
71668;DHT22;59504;54.806;9.640;2023-06-04T05:04:50;10.40;62.80
71668;DHT22;59504;54.806;9.640;2023-06-04T05:07:14;10.40;61.90
71668;DHT22;59504;54.806;9.640;2023-06-04T05:09:37;10.50;61.50
71668;DHT22;59504;54.806;9.640;2023-06-04T05:11:58;10.60;61.90
71668;DHT22;59504;54.806;9.640;2023-06-04T05:14:19;10.60;61.90
71668;DHT22;59504;54.806;9.640;2023-06-04T05:16:40;10.70;62.50
71668;DHT22;59504;54.806;9.640;2023-06-04T05:19:01;10.80;62.00
71668;DHT22;59504;54.806;9.640;2023-06-04T05:21:22;10.90;62.20
71668;DHT22;59504;54.806;9.640;2023-06-04T05:23:43;11.00;63.30
71668;DHT22;59504;54.806;9.640;2023-06-04T05:26:05;11.00;63.30
71668;DHT22;59504;54.806;9.640;2023-06-04T05:28:26;11.00;64.00
71668;DHT22;59504;54.806;9.640;2023-06-04T05:30:47;11.10;62.50
71668;DHT22;59504;54.806;9.640;2023-06-04T05:33:09;11.10;61.00
71668;DHT22;59504;54.806;9.640;2023-06-04T05:35:38;11.20;62.00
71668;DHT22;59504;54.806;9.640;2023-06-04T05:38:02;11.20;62.30
71668;DHT22;59504;54.806;9.640;2023-06-04T05:40:22;11.30;62.40
71668;DHT22;59504;54.806;9.640;2023-06-04T05:42:43;11.30;61.90
71668;DHT22;59504;54.806;9.640;2023-06-04T05:45:05;11.30;61.50
71668;DHT22;59504;54.806;9.640;2023-06-04T05:47:27;11.40;61.50
71668;DHT22;59504;54.806;9.640;2023-06-04T05:49:49;11.40;60.80
71668;DHT22;59504;54.806;9.640;2023-06-04T05:52:10;11.40;60.40
71668;DHT22;59504;54.806;9.640;2023-06-04T05:54:31;11.50;61.10
71668;DHT22;59504;54.806;9.640;2023-06-04T05:56:53;11.50;60.70
71668;DHT22;59504;54.806;9.640;2023-06-04T05:59:14;11.60;60.90
71668;DHT22;59504;54.806;9.640;2023-06-04T06:01:35;11.60;60.70
71668;DHT22;59504;54.806;9.640;2023-06-04T06:03:57;11.60;60.80
71668;DHT22;59504;54.806;9.640;2023-06-04T06:06:19;11.70;60.40
71668;DHT22;59504;54.806;9.640;2023-06-04T06:08:41;11.70;60.50
71668;DHT22;59504;54.806;9.640;2023-06-04T06:11:02;11.70;60.60
71668;DHT22;59504;54.806;9.640;2023-06-04T06:13:24;11.70;60.80
71668;DHT22;59504;54.806;9.640;2023-06-04T06:15:46;11.80;60.80
71668;DHT22;59504;54.806;9.640;2023-06-04T06:18:07;11.80;61.00
71668;DHT22;59504;54.806;9.640;2023-06-04T06:20:28;11.70;60.90
71668;DHT22;59504;54.806;9.640;2023-06-04T06:22:49;11.80;61.10
71668;DHT22;59504;54.806;9.640;2023-06-04T06:25:10;11.80;60.80
71668;DHT22;59504;54.806;9.640;2023-06-04T06:27:34;11.80;60.90
71668;DHT22;59504;54.806;9.640;2023-06-04T06:29:55;11.80;60.70
71668;DHT22;59504;54.806;9.640;2023-06-04T06:32:17;11.90;61.10
71668;DHT22;59504;54.806;9.640;2023-06-04T06:34:38;11.80;60.90
71668;DHT22;59504;54.806;9.640;2023-06-04T06:36:59;11.90;61.20
71668;DHT22;59504;54.806;9.640;2023-06-04T06:39:19;11.90;61.40
71668;DHT22;59504;54.806;9.640;2023-06-04T06:41:40;11.90;60.80
71668;DHT22;59504;54.806;9.640;2023-06-04T06:44:01;11.90;61.10
71668;DHT22;59504;54.806;9.640;2023-06-04T06:46:22;11.90;61.40
71668;DHT22;59504;54.806;9.640;2023-06-04T06:48:43;12.00;61.10
71668;DHT22;59504;54.806;9.640;2023-06-04T06:51:05;12.00;61.30
71668;DHT22;59504;54.806;9.640;2023-06-04T06:53:26;12.00;62.00
71668;DHT22;59504;54.806;9.640;2023-06-04T06:55:47;12.00;61.80
71668;DHT22;59504;54.806;9.640;2023-06-04T06:58:08;12.00;61.60
71668;DHT22;59504;54.806;9.640;2023-06-04T07:00:29;12.00;61.90
71668;DHT22;59504;54.806;9.640;2023-06-04T07:02:50;12.10;61.90
71668;DHT22;59504;54.806;9.640;2023-06-04T07:05:11;12.20;61.60
71668;DHT22;59504;54.806;9.640;2023-06-04T07:07:32;12.10;61.30
71668;DHT22;59504;54.806;9.640;2023-06-04T07:09:53;12.20;61.30
71668;DHT22;59504;54.806;9.640;2023-06-04T07:12:13;12.20;61.30
71668;DHT22;59504;54.806;9.640;2023-06-04T07:14:34;12.20;61.10
71668;DHT22;59504;54.806;9.640;2023-06-04T07:16:55;12.30;61.60
71668;DHT22;59504;54.806;9.640;2023-06-04T07:19:16;12.40;61.40
71668;DHT22;59504;54.806;9.640;2023-06-04T07:21:37;12.50;61.20
71668;DHT22;59504;54.806;9.640;2023-06-04T07:23:58;12.40;61.00
71668;DHT22;59504;54.806;9.640;2023-06-04T07:26:18;12.50;61.10
71668;DHT22;59504;54.806;9.640;2023-06-04T07:28:39;12.60;60.90
71668;DHT22;59504;54.806;9.640;2023-06-04T07:31:00;12.60;60.90
71668;DHT22;59504;54.806;9.640;2023-06-04T07:33:21;12.70;60.60
71668;DHT22;59504;54.806;9.640;2023-06-04T07:35:42;12.70;60.40
71668;DHT22;59504;54.806;9.640;2023-06-04T07:38:03;12.80;60.30
71668;DHT22;59504;54.806;9.640;2023-06-04T07:40:24;12.80;60.20
71668;DHT22;59504;54.806;9.640;2023-06-04T07:42:45;12.90;60.00
71668;DHT22;59504;54.806;9.640;2023-06-04T07:45:07;12.90;59.80
71668;DHT22;59504;54.806;9.640;2023-06-04T07:47:28;13.00;59.80
71668;DHT22;59504;54.806;9.640;2023-06-04T07:49:49;13.00;59.80
71668;DHT22;59504;54.806;9.640;2023-06-04T07:52:10;13.10;59.80
71668;DHT22;59504;54.806;9.640;2023-06-04T07:54:31;13.20;59.70
71668;DHT22;59504;54.806;9.640;2023-06-04T07:56:52;13.20;59.60
71668;DHT22;59504;54.806;9.640;2023-06-04T07:59:16;13.30;59.40
71668;DHT22;59504;54.806;9.640;2023-06-04T08:01:37;13.40;59.10
71668;DHT22;59504;54.806;9.640;2023-06-04T08:03:58;13.50;59.00
71668;DHT22;59504;54.806;9.640;2023-06-04T08:06:19;13.60;58.80
71668;DHT22;59504;54.806;9.640;2023-06-04T08:08:43;13.60;58.60
71668;DHT22;59504;54.806;9.640;2023-06-04T08:11:09;13.80;58.70
71668;DHT22;59504;54.806;9.640;2023-06-04T08:13:29;13.90;58.70
71668;DHT22;59504;54.806;9.640;2023-06-04T08:15:50;14.00;58.60
71668;DHT22;59504;54.806;9.640;2023-06-04T08:18:11;14.10;58.50
71668;DHT22;59504;54.806;9.640;2023-06-04T08:20:32;14.20;58.40
71668;DHT22;59504;54.806;9.640;2023-06-04T08:22:53;14.30;58.20
71668;DHT22;59504;54.806;9.640;2023-06-04T08:25:14;14.40;57.80
71668;DHT22;59504;54.806;9.640;2023-06-04T08:27:35;14.60;57.70
71668;DHT22;59504;54.806;9.640;2023-06-04T08:29:56;14.60;57.20
71668;DHT22;59504;54.806;9.640;2023-06-04T08:32:17;14.70;56.40
71668;DHT22;59504;54.806;9.640;2023-06-04T08:34:37;14.70;56.30
71668;DHT22;59504;54.806;9.640;2023-06-04T08:36:58;14.80;56.00
71668;DHT22;59504;54.806;9.640;2023-06-04T08:39:19;14.90;56.00
71668;DHT22;59504;54.806;9.640;2023-06-04T08:41:45;15.00;55.60
71668;DHT22;59504;54.806;9.640;2023-06-04T08:44:06;15.00;55.50
71668;DHT22;59504;54.806;9.640;2023-06-04T08:46:31;15.10;55.20
71668;DHT22;59504;54.806;9.640;2023-06-04T08:48:52;15.00;54.80
71668;DHT22;59504;54.806;9.640;2023-06-04T08:51:14;15.10;54.70
71668;DHT22;59504;54.806;9.640;2023-06-04T08:53:36;15.00;54.70
71668;DHT22;59504;54.806;9.640;2023-06-04T08:55:57;15.00;54.80
71668;DHT22;59504;54.806;9.640;2023-06-04T08:58:18;15.10;54.70
71668;DHT22;59504;54.806;9.640;2023-06-04T09:00:39;15.10;54.60
71668;DHT22;59504;54.806;9.640;2023-06-04T09:03:01;15.00;54.70
71668;DHT22;59504;54.806;9.640;2023-06-04T09:05:22;14.90;54.60
71668;DHT22;59504;54.806;9.640;2023-06-04T09:07:43;14.90;54.60
71668;DHT22;59504;54.806;9.640;2023-06-04T09:10:04;14.80;54.70
71668;DHT22;59504;54.806;9.640;2023-06-04T09:12:27;14.80;54.70
71668;DHT22;59504;54.806;9.640;2023-06-04T09:14:48;14.80;54.80
71668;DHT22;59504;54.806;9.640;2023-06-04T09:17:11;14.80;54.90
71668;DHT22;59504;54.806;9.640;2023-06-04T09:19:32;14.80;55.10
71668;DHT22;59504;54.806;9.640;2023-06-04T09:21:56;14.80;55.10
71668;DHT22;59504;54.806;9.640;2023-06-04T09:24:18;14.70;55.00
71668;DHT22;59504;54.806;9.640;2023-06-04T09:26:39;14.70;55.30
71668;DHT22;59504;54.806;9.640;2023-06-04T09:28:59;14.70;55.40
71668;DHT22;59504;54.806;9.640;2023-06-04T09:31:20;14.70;55.70
71668;DHT22;59504;54.806;9.640;2023-06-04T09:33:43;14.70;55.70
71668;DHT22;59504;54.806;9.640;2023-06-04T09:36:04;14.60;55.70
71668;DHT22;59504;54.806;9.640;2023-06-04T09:38:32;14.60;55.80
71668;DHT22;59504;54.806;9.640;2023-06-04T09:40:53;14.60;56.70
71668;DHT22;59504;54.806;9.640;2023-06-04T09:43:21;14.70;56.00
71668;DHT22;59504;54.806;9.640;2023-06-04T09:45:42;14.60;55.80
71668;DHT22;59504;54.806;9.640;2023-06-04T09:48:03;14.60;55.90
71668;DHT22;59504;54.806;9.640;2023-06-04T09:50:26;14.60;56.00
71668;DHT22;59504;54.806;9.640;2023-06-04T09:52:47;14.70;56.00
71668;DHT22;59504;54.806;9.640;2023-06-04T09:55:15;14.60;56.20
71668;DHT22;59504;54.806;9.640;2023-06-04T09:57:39;14.60;56.20
71668;DHT22;59504;54.806;9.640;2023-06-04T10:00:01;14.60;56.20
71668;DHT22;59504;54.806;9.640;2023-06-04T10:02:22;14.60;56.40
71668;DHT22;59504;54.806;9.640;2023-06-04T10:04:43;14.70;56.30
71668;DHT22;59504;54.806;9.640;2023-06-04T10:07:06;14.70;56.50
71668;DHT22;59504;54.806;9.640;2023-06-04T10:09:28;14.70;56.50
71668;DHT22;59504;54.806;9.640;2023-06-04T10:11:52;14.70;56.30
71668;DHT22;59504;54.806;9.640;2023-06-04T10:14:23;14.60;56.40
71668;DHT22;59504;54.806;9.640;2023-06-04T10:16:45;14.60;56.20
71668;DHT22;59504;54.806;9.640;2023-06-04T10:19:07;14.60;56.40
71668;DHT22;59504;54.806;9.640;2023-06-04T10:21:28;14.60;56.20
71668;DHT22;59504;54.806;9.640;2023-06-04T10:23:52;14.60;56.30
71668;DHT22;59504;54.806;9.640;2023-06-04T10:26:13;14.60;56.30
71668;DHT22;59504;54.806;9.640;2023-06-04T10:28:34;14.50;56.30
71668;DHT22;59504;54.806;9.640;2023-06-04T10:30:55;14.50;56.50
71668;DHT22;59504;54.806;9.640;2023-06-04T10:33:20;14.60;56.60
71668;DHT22;59504;54.806;9.640;2023-06-04T10:35:41;14.60;56.50
71668;DHT22;59504;54.806;9.640;2023-06-04T10:40:33;14.60;56.50
71668;DHT22;59504;54.806;9.640;2023-06-04T10:42:54;14.60;56.60
71668;DHT22;59504;54.806;9.640;2023-06-04T10:45:14;14.60;56.50
71668;DHT22;59504;54.806;9.640;2023-06-04T10:47:35;14.60;56.50
71668;DHT22;59504;54.806;9.640;2023-06-04T10:50:10;14.60;56.50
71668;DHT22;59504;54.806;9.640;2023-06-04T10:52:31;14.60;56.50
71668;DHT22;59504;54.806;9.640;2023-06-04T10:55:02;14.60;56.50
71668;DHT22;59504;54.806;9.640;2023-06-04T10:57:23;14.60;56.60
71668;DHT22;59504;54.806;9.640;2023-06-04T10:59:53;14.60;56.70
71668;DHT22;59504;54.806;9.640;2023-06-04T11:02:14;14.60;56.70
71668;DHT22;59504;54.806;9.640;2023-06-04T11:04:35;14.70;56.60
71668;DHT22;59504;54.806;9.640;2023-06-04T11:06:59;14.60;56.60
71668;DHT22;59504;54.806;9.640;2023-06-04T11:09:22;14.60;56.80
71668;DHT22;59504;54.806;9.640;2023-06-04T11:11:43;14.70;56.90
71668;DHT22;59504;54.806;9.640;2023-06-04T11:14:08;14.80;57.00
71668;DHT22;59504;54.806;9.640;2023-06-04T11:16:31;14.70;57.00
71668;DHT22;59504;54.806;9.640;2023-06-04T11:18:56;14.80;57.10
71668;DHT22;59504;54.806;9.640;2023-06-04T11:21:17;14.80;57.10
71668;DHT22;59504;54.806;9.640;2023-06-04T11:23:37;14.80;56.90
71668;DHT22;59504;54.806;9.640;2023-06-04T11:25:58;14.90;56.90
71668;DHT22;59504;54.806;9.640;2023-06-04T11:28:20;14.90;56.80
71668;DHT22;59504;54.806;9.640;2023-06-04T11:30:44;14.90;56.90
71668;DHT22;59504;54.806;9.640;2023-06-04T11:33:05;15.00;56.80
71668;DHT22;59504;54.806;9.640;2023-06-04T11:35:26;15.00;57.00
71668;DHT22;59504;54.806;9.640;2023-06-04T11:37:53;15.00;56.90
71668;DHT22;59504;54.806;9.640;2023-06-04T11:40:15;15.10;56.90
71668;DHT22;59504;54.806;9.640;2023-06-04T11:42:39;15.10;56.80
71668;DHT22;59504;54.806;9.640;2023-06-04T11:45:03;15.20;56.80
71668;DHT22;59504;54.806;9.640;2023-06-04T11:47:24;15.20;56.70
71668;DHT22;59504;54.806;9.640;2023-06-04T11:49:45;15.30;56.80
71668;DHT22;59504;54.806;9.640;2023-06-04T11:52:06;15.30;56.60
71668;DHT22;59504;54.806;9.640;2023-06-04T11:54:28;15.40;56.40
71668;DHT22;59504;54.806;9.640;2023-06-04T11:56:49;15.40;56.40
71668;DHT22;59504;54.806;9.640;2023-06-04T11:59:15;15.40;56.30
71668;DHT22;59504;54.806;9.640;2023-06-04T12:01:36;15.40;56.30
71668;DHT22;59504;54.806;9.640;2023-06-04T12:03:57;15.60;56.30
71668;DHT22;59504;54.806;9.640;2023-06-04T12:06:18;15.50;56.00
71668;DHT22;59504;54.806;9.640;2023-06-04T12:11:09;15.50;56.00
71668;DHT22;59504;54.806;9.640;2023-06-04T12:13:36;15.60;56.00
71668;DHT22;59504;54.806;9.640;2023-06-04T12:16:00;15.50;55.80
71668;DHT22;59504;54.806;9.640;2023-06-04T12:18:24;15.60;56.00
71668;DHT22;59504;54.806;9.640;2023-06-04T12:20:45;15.60;56.10
71668;DHT22;59504;54.806;9.640;2023-06-04T12:23:06;15.70;56.00
71668;DHT22;59504;54.806;9.640;2023-06-04T12:25:28;15.70;55.80
71668;DHT22;59504;54.806;9.640;2023-06-04T12:27:49;15.80;55.60
71668;DHT22;59504;54.806;9.640;2023-06-04T12:30:13;15.70;55.60
71668;DHT22;59504;54.806;9.640;2023-06-04T12:32:37;15.80;55.50
71668;DHT22;59504;54.806;9.640;2023-06-04T12:34:57;15.80;55.60
71668;DHT22;59504;54.806;9.640;2023-06-04T12:37:18;15.80;55.70
71668;DHT22;59504;54.806;9.640;2023-06-04T12:39:39;15.90;55.80
71668;DHT22;59504;54.806;9.640;2023-06-04T12:42:00;15.90;55.90
71668;DHT22;59504;54.806;9.640;2023-06-04T12:44:21;15.90;55.90
71668;DHT22;59504;54.806;9.640;2023-06-04T12:46:42;16.10;55.60
71668;DHT22;59504;54.806;9.640;2023-06-04T12:49:03;16.20;56.00
71668;DHT22;59504;54.806;9.640;2023-06-04T12:51:23;16.30;55.80
71668;DHT22;59504;54.806;9.640;2023-06-04T12:53:44;16.30;55.40
71668;DHT22;59504;54.806;9.640;2023-06-04T12:56:05;16.30;55.20
71668;DHT22;59504;54.806;9.640;2023-06-04T12:58:26;16.50;55.40
71668;DHT22;59504;54.806;9.640;2023-06-04T13:00:50;16.50;55.30
71668;DHT22;59504;54.806;9.640;2023-06-04T13:03:11;16.60;55.30
71668;DHT22;59504;54.806;9.640;2023-06-04T13:05:31;16.70;55.30
71668;DHT22;59504;54.806;9.640;2023-06-04T13:07:52;16.80;55.10
71668;DHT22;59504;54.806;9.640;2023-06-04T13:10:13;16.90;55.10
71668;DHT22;59504;54.806;9.640;2023-06-04T13:12:34;16.90;54.80
71668;DHT22;59504;54.806;9.640;2023-06-04T13:14:55;17.00;54.40
71668;DHT22;59504;54.806;9.640;2023-06-04T13:17:16;17.10;54.30
71668;DHT22;59504;54.806;9.640;2023-06-04T13:19:37;17.20;53.90
71668;DHT22;59504;54.806;9.640;2023-06-04T13:21:58;17.20;54.10
71668;DHT22;59504;54.806;9.640;2023-06-04T13:24:19;17.30;54.00
71668;DHT22;59504;54.806;9.640;2023-06-04T13:26:39;17.50;54.10
71668;DHT22;59504;54.806;9.640;2023-06-04T13:29:02;17.50;54.00
71668;DHT22;59504;54.806;9.640;2023-06-04T13:31:23;17.60;54.20
71668;DHT22;59504;54.806;9.640;2023-06-04T13:33:44;17.60;53.70
71668;DHT22;59504;54.806;9.640;2023-06-04T13:36:05;17.70;53.30
71668;DHT22;59504;54.806;9.640;2023-06-04T13:38:26;17.80;52.80
71668;DHT22;59504;54.806;9.640;2023-06-04T13:40:47;17.90;52.90
71668;DHT22;59504;54.806;9.640;2023-06-04T13:43:08;17.90;52.00
71668;DHT22;59504;54.806;9.640;2023-06-04T13:45:29;18.00;51.90
71668;DHT22;59504;54.806;9.640;2023-06-04T13:47:50;18.00;51.80
71668;DHT22;59504;54.806;9.640;2023-06-04T13:50:11;18.10;52.00
71668;DHT22;59504;54.806;9.640;2023-06-04T13:52:32;18.10;52.20
71668;DHT22;59504;54.806;9.640;2023-06-04T13:54:53;18.20;51.20
71668;DHT22;59504;54.806;9.640;2023-06-04T13:57:13;18.20;51.10
71668;DHT22;59504;54.806;9.640;2023-06-04T13:59:34;18.30;52.10
71668;DHT22;59504;54.806;9.640;2023-06-04T14:01:55;18.40;51.70
71668;DHT22;59504;54.806;9.640;2023-06-04T14:04:16;18.40;51.20
71668;DHT22;59504;54.806;9.640;2023-06-04T14:06:37;18.50;50.60
71668;DHT22;59504;54.806;9.640;2023-06-04T14:08:58;18.60;51.30
71668;DHT22;59504;54.806;9.640;2023-06-04T14:11:19;18.70;51.20
71668;DHT22;59504;54.806;9.640;2023-06-04T14:13:40;18.80;50.80
71668;DHT22;59504;54.806;9.640;2023-06-04T14:16:01;18.80;50.90
71668;DHT22;59504;54.806;9.640;2023-06-04T14:18:22;18.80;50.80
71668;DHT22;59504;54.806;9.640;2023-06-04T14:20:43;18.80;51.00
71668;DHT22;59504;54.806;9.640;2023-06-04T14:23:04;18.90;50.60
71668;DHT22;59504;54.806;9.640;2023-06-04T14:25:25;18.90;50.90
71668;DHT22;59504;54.806;9.640;2023-06-04T14:27:46;18.90;50.70
71668;DHT22;59504;54.806;9.640;2023-06-04T14:30:07;18.90;50.20
71668;DHT22;59504;54.806;9.640;2023-06-04T14:32:28;19.00;50.30
71668;DHT22;59504;54.806;9.640;2023-06-04T14:34:49;18.90;49.60
71668;DHT22;59504;54.806;9.640;2023-06-04T14:37:10;19.00;49.60
71668;DHT22;59504;54.806;9.640;2023-06-04T14:39:30;19.00;49.40
71668;DHT22;59504;54.806;9.640;2023-06-04T14:41:52;19.00;49.40
71668;DHT22;59504;54.806;9.640;2023-06-04T14:44:12;19.00;49.00
71668;DHT22;59504;54.806;9.640;2023-06-04T14:46:33;19.00;48.90
71668;DHT22;59504;54.806;9.640;2023-06-04T14:48:54;19.00;48.90
71668;DHT22;59504;54.806;9.640;2023-06-04T14:51:15;19.00;49.00
71668;DHT22;59504;54.806;9.640;2023-06-04T14:53:36;19.00;48.70
71668;DHT22;59504;54.806;9.640;2023-06-04T14:55:59;19.00;48.70
71668;DHT22;59504;54.806;9.640;2023-06-04T14:58:20;19.00;48.90
71668;DHT22;59504;54.806;9.640;2023-06-04T15:00:41;19.00;48.90
71668;DHT22;59504;54.806;9.640;2023-06-04T15:03:02;19.00;48.80
71668;DHT22;59504;54.806;9.640;2023-06-04T15:05:23;19.10;49.00
71668;DHT22;59504;54.806;9.640;2023-06-04T15:07:44;19.10;49.00
71668;DHT22;59504;54.806;9.640;2023-06-04T15:10:05;19.10;48.50
71668;DHT22;59504;54.806;9.640;2023-06-04T15:12:27;19.10;48.30
71668;DHT22;59504;54.806;9.640;2023-06-04T15:14:50;19.10;48.40
71668;DHT22;59504;54.806;9.640;2023-06-04T15:17:10;19.20;48.30